createdAt,value
2019-06-07T00:01:08.419Z,7.40
2019-06-07T00:03:35.088Z,9.60
2019-06-07T00:06:03.175Z,6.40
2019-06-07T00:08:33.115Z,9.20
2019-06-07T00:11:00.821Z,9.20
2019-06-07T00:13:30.302Z,9.80
2019-06-07T00:15:57.818Z,7.00
2019-06-07T00:18:26.382Z,7.00
2019-06-07T00:20:53.863Z,9.00
2019-06-07T00:23:22.895Z,11.60
2019-06-07T00:25:50.990Z,10.60
2019-06-07T00:28:20.238Z,7.20
2019-06-07T00:30:51.933Z,5.80
2019-06-07T00:33:23.868Z,10.20
2019-06-07T00:35:48.444Z,6.80
2019-06-07T00:38:18.960Z,9.00
2019-06-07T00:40:45.406Z,8.40
2019-06-07T00:43:14.191Z,9.80
2019-06-07T00:45:42.315Z,12.60
2019-06-07T00:48:16.134Z,13.60
2019-06-07T00:50:39.106Z,9.20
2019-06-07T00:53:18.231Z,7.80
2019-06-07T00:55:38.945Z,13.80
2019-06-07T00:58:06.559Z,10.00
2019-06-07T01:00:34.206Z,9.60
2019-06-07T01:03:01.787Z,11.00
2019-06-07T01:05:31.551Z,9.40
2019-06-07T01:08:01.006Z,8.20
2019-06-07T01:10:51.719Z,10.80
2019-06-07T01:12:59.924Z,9.60
2019-06-07T01:15:29.261Z,9.00
2019-06-07T01:18:36.061Z,12.20
2019-06-07T01:20:26.781Z,13.80
2019-06-07T01:22:56.938Z,14.60
2019-06-07T01:25:26.388Z,12.20
2019-06-07T01:27:55.119Z,10.00
2019-06-07T01:30:24.596Z,10.80
2019-06-07T01:32:51.975Z,11.80
2019-06-07T01:35:20.604Z,8.20
2019-06-07T01:37:49.325Z,12.60
2019-06-07T01:40:17.774Z,10.40
2019-06-07T01:42:46.284Z,12.00
2019-06-07T01:45:14.561Z,8.20
2019-06-07T01:47:45.043Z,9.60
2019-06-07T01:50:12.700Z,9.60
2019-06-07T01:52:40.375Z,12.40
2019-06-07T01:55:08.430Z,9.40
2019-06-07T01:57:47.489Z,11.60
2019-06-07T02:00:05.494Z,7.00
2019-06-07T02:02:33.097Z,7.00
2019-06-07T02:05:01.158Z,9.00
2019-06-07T02:07:32.804Z,11.60
2019-06-07T02:09:58.355Z,7.40
2019-06-07T02:12:37.564Z,7.40
2019-06-07T02:14:55.692Z,11.20
2019-06-07T02:17:26.301Z,10.00
2019-06-07T02:19:52.636Z,8.60
2019-06-07T02:22:22.889Z,10.40
2019-06-07T02:25:33.451Z,9.60
2019-06-07T02:27:20.745Z,11.60
2019-06-07T02:29:48.493Z,12.00
2019-06-07T02:32:16.583Z,6.20
2019-06-07T02:34:44.226Z,9.60
2019-06-07T02:37:11.811Z,9.00
2019-06-07T02:39:41.001Z,9.00
2019-06-07T02:42:09.427Z,9.40
2019-06-07T02:44:40.668Z,14.40
2019-06-07T02:47:08.375Z,9.00
2019-06-07T02:49:40.872Z,12.20
2019-06-07T02:52:05.776Z,13.00
2019-06-07T02:54:38.978Z,9.20
2019-06-07T02:57:02.492Z,9.00
2019-06-07T02:59:57.165Z,12.00
2019-06-07T03:01:59.900Z,11.80
2019-06-07T03:04:29.534Z,9.80
2019-06-07T03:06:57.260Z,13.20
2019-06-07T03:09:26.366Z,12.80
2019-06-07T03:11:54.105Z,11.20
2019-06-07T03:14:22.076Z,11.20
2019-06-07T03:16:57.332Z,10.00
2019-06-07T03:19:37.312Z,7.80
2019-06-07T03:22:02.077Z,10.20
2019-06-07T03:24:33.139Z,9.20
2019-06-07T03:29:29.978Z,12.00
2019-06-07T03:31:58.029Z,11.60
2019-06-07T03:34:28.793Z,14.00
2019-06-07T03:36:55.660Z,10.40
2019-06-07T03:39:23.310Z,7.00
2019-06-07T03:42:05.645Z,12.40
2019-06-07T03:44:20.226Z,9.40
2019-06-07T03:46:47.721Z,9.40
2019-06-07T03:49:15.447Z,10.00
2019-06-07T03:51:43.415Z,7.40
2019-06-07T03:54:10.994Z,9.20
2019-06-07T03:56:40.960Z,11.20
2019-06-07T03:59:07.821Z,6.80
2019-06-07T04:01:37.667Z,12.80
2019-06-07T04:04:04.820Z,7.40
2019-06-07T04:06:34.418Z,9.00
2019-06-07T04:09:02.232Z,9.80
2019-06-07T04:11:30.057Z,11.60
2019-06-07T04:13:58.009Z,10.80
2019-06-07T04:16:25.668Z,15.60
2019-06-07T04:18:53.650Z,15.60
2019-06-07T04:21:21.330Z,12.60
2019-06-07T04:23:48.985Z,12.00
2019-06-07T04:26:16.729Z,12.60
2019-06-07T04:31:18.736Z,12.60
2019-06-07T04:33:46.390Z,15.40
2019-06-07T04:36:14.491Z,12.60
2019-06-07T04:38:42.748Z,12.20
2019-06-07T04:41:10.863Z,12.40
2019-06-07T04:43:41.089Z,14.60
2019-06-07T04:46:08.201Z,8.60
2019-06-07T04:48:40.175Z,9.60
2019-06-07T04:51:05.906Z,8.20
2019-06-07T04:53:35.326Z,10.00
2019-06-07T04:56:03.103Z,10.00
2019-06-07T04:58:31.482Z,9.60
2019-06-07T05:01:03.409Z,9.60
2019-06-07T05:03:37.049Z,12.60
2019-06-07T05:06:07.118Z,7.00
2019-06-07T05:08:36.157Z,9.60
2019-06-07T05:11:04.131Z,11.20
2019-06-07T05:13:36.725Z,10.40
2019-06-07T05:16:03.156Z,9.60
2019-06-07T05:18:33.689Z,12.40
2019-06-07T05:21:00.471Z,6.00
2019-06-07T05:24:02.614Z,9.00
2019-06-07T05:25:57.661Z,9.00
2019-06-07T05:28:25.282Z,6.60
2019-06-07T05:31:05.080Z,5.20
2019-06-07T05:33:27.199Z,7.00
2019-06-07T05:35:58.311Z,4.00
2019-06-07T05:38:26.096Z,7.80
2019-06-07T05:40:56.098Z,6.20
2019-06-07T05:43:23.717Z,7.20
2019-06-07T05:45:51.321Z,9.60
2019-06-07T05:48:18.836Z,12.40
2019-06-07T05:50:56.117Z,6.80
2019-06-07T05:53:16.807Z,7.00
2019-06-07T05:55:47.524Z,10.00
2019-06-07T05:58:14.129Z,7.60
2019-06-07T06:00:44.594Z,4.80
2019-06-07T06:03:11.039Z,8.60
2019-06-07T06:05:43.281Z,9.20
2019-06-07T06:08:08.848Z,9.20
2019-06-07T06:10:37.679Z,10.00
2019-06-07T06:13:08.737Z,12.80
2019-06-07T06:15:45.281Z,12.00
2019-06-07T06:18:07.216Z,11.60
2019-06-07T06:21:00.961Z,9.40
2019-06-07T06:23:04.753Z,9.20
2019-06-07T06:25:34.634Z,5.20
2019-06-07T06:28:10.927Z,9.60
2019-06-07T06:30:31.938Z,7.00
2019-06-07T06:32:59.539Z,9.20
2019-06-07T06:35:30.538Z,9.00
2019-06-07T06:38:05.286Z,11.60
2019-06-07T06:40:33.194Z,9.00
2019-06-07T06:43:03.152Z,6.00
2019-06-07T06:45:36.332Z,9.40
2019-06-07T06:48:04.145Z,9.00
2019-06-07T06:50:31.744Z,9.80
2019-06-07T06:52:59.320Z,9.80
2019-06-07T06:55:27.362Z,10.00
2019-06-07T06:57:57.880Z,6.00
2019-06-07T07:00:43.080Z,9.80
2019-06-07T07:05:26.745Z,11.60
2019-06-07T07:07:54.287Z,10.00
2019-06-07T07:10:22.174Z,7.40
2019-06-07T07:12:51.218Z,12.60
2019-06-07T07:15:18.986Z,9.00
2019-06-07T07:18:03.690Z,10.00
2019-06-07T07:20:19.915Z,12.00
2019-06-07T07:22:50.297Z,9.80
2019-06-07T07:25:17.397Z,9.60
2019-06-07T07:27:47.014Z,12.60
2019-06-07T07:30:36.066Z,9.80
2019-06-07T07:32:45.590Z,9.20
2019-06-07T07:35:13.019Z,14.20
2019-06-07T07:37:40.611Z,12.60
2019-06-07T07:40:55.305Z,9.40
2019-06-07T07:42:37.643Z,13.00
2019-06-07T07:45:05.130Z,12.60
2019-06-07T07:47:33.593Z,15.00
2019-06-07T07:50:01.117Z,9.80
2019-06-07T07:52:29.169Z,9.80
2019-06-07T07:54:58.379Z,12.60
2019-06-07T07:57:26.508Z,11.20
2019-06-07T08:00:25.219Z,9.40
2019-06-07T08:02:23.679Z,12.00
2019-06-07T08:05:16.574Z,9.80
2019-06-07T08:07:22.074Z,12.00
2019-06-07T08:09:51.447Z,9.40
2019-06-07T08:12:24.456Z,7.60
2019-06-07T08:14:57.451Z,9.00
2019-06-07T08:17:21.916Z,9.00
2019-06-07T08:19:51.607Z,10.00
2019-06-07T08:22:20.878Z,9.60
2019-06-07T08:24:50.441Z,6.40
2019-06-07T08:27:26.319Z,10.80
2019-06-07T08:30:06.446Z,10.00
2019-06-07T08:32:17.760Z,11.00
2019-06-07T08:34:45.414Z,10.20
2019-06-07T08:37:13.285Z,7.60
2019-06-07T08:39:40.905Z,8.20
2019-06-07T08:42:17.622Z,5.40
2019-06-07T08:44:43.797Z,7.00
2019-06-07T08:47:20.476Z,7.60
2019-06-07T08:49:42.387Z,8.80
2019-06-07T08:52:12.251Z,7.00
2019-06-07T08:54:39.709Z,8.80
2019-06-07T08:57:20.693Z,7.20
2019-06-07T08:59:37.917Z,7.20
2019-06-07T09:02:20.953Z,5.80
2019-06-07T09:04:34.932Z,4.00
2019-06-07T09:07:18.954Z,8.00
2019-06-07T09:09:39.072Z,7.60
2019-06-07T09:12:11.411Z,7.20
2019-06-07T09:14:57.551Z,7.00
2019-06-07T09:17:11.719Z,8.00
2019-06-07T09:19:38.229Z,8.00
2019-06-07T09:22:11.089Z,7.00
2019-06-07T09:24:38.992Z,7.00
2019-06-07T09:27:08.387Z,6.20
2019-06-07T09:29:36.241Z,6.00
2019-06-07T09:32:05.933Z,6.20
2019-06-07T09:34:33.546Z,5.00
2019-06-07T09:37:10.941Z,5.20
2019-06-07T09:39:34.362Z,7.20
2019-06-07T09:42:08.377Z,5.20
2019-06-07T09:44:31.519Z,5.60
2019-06-07T09:47:19.990Z,5.00
2019-06-07T09:49:32.891Z,5.00
2019-06-07T09:52:02.596Z,5.60
2019-06-07T09:55:03.150Z,6.00
2019-06-07T09:57:00.379Z,4.80
2019-06-07T09:59:28.242Z,4.00
2019-06-07T10:01:59.049Z,5.20
2019-06-07T10:04:31.226Z,5.00
2019-06-07T10:07:03.414Z,2.00
2019-06-07T10:10:08.980Z,6.00
2019-06-07T10:11:56.608Z,4.60
2019-06-07T10:14:24.161Z,5.40
2019-06-07T10:16:51.679Z,5.40
2019-06-07T10:19:19.597Z,6.00
2019-06-07T10:22:23.263Z,3.00
2019-06-07T10:24:25.222Z,7.00
2019-06-07T10:27:13.786Z,6.00
2019-06-07T10:29:41.739Z,1.40
2019-06-07T10:32:11.581Z,3.00
2019-06-07T10:34:39.282Z,3.00
2019-06-07T10:37:09.834Z,3.80
2019-06-07T10:39:48.040Z,6.20
2019-06-07T10:42:07.800Z,4.00
2019-06-07T10:44:37.321Z,4.80
2019-06-07T10:47:08.192Z,3.00
2019-06-07T10:49:38.756Z,5.00
2019-06-07T10:52:10.381Z,4.00
2019-06-07T10:54:38.316Z,5.00
2019-06-07T10:59:52.654Z,5.00
2019-06-07T11:02:21.849Z,4.60
2019-06-07T11:04:49.484Z,3.60
2019-06-07T11:07:20.393Z,5.40
2019-06-07T11:10:06.063Z,5.00
2019-06-07T11:12:22.448Z,2.00
2019-06-07T11:17:53.210Z,4.00
2019-06-07T11:18:21.042Z,3.00
2019-06-07T11:20:21.242Z,5.60
2019-06-07T11:22:51.064Z,5.00
2019-06-07T11:25:19.038Z,4.00
2019-06-07T11:27:47.025Z,4.20
2019-06-07T11:30:14.661Z,3.60
2019-06-07T11:32:42.199Z,5.80
2019-06-07T11:35:11.623Z,6.40
2019-06-07T11:37:40.352Z,4.00
2019-06-07T11:40:27.932Z,4.40
2019-06-07T11:45:28.843Z,4.00
2019-06-07T11:47:59.764Z,4.40
2019-06-07T11:50:26.136Z,4.20
2019-06-07T11:52:53.754Z,5.00
2019-06-07T11:55:23.699Z,5.60
2019-06-07T11:57:53.154Z,4.00
2019-06-07T12:00:21.122Z,4.20
2019-06-07T12:02:52.429Z,4.00
2019-06-07T12:05:22.934Z,4.00
2019-06-07T12:07:50.558Z,5.40
2019-06-07T12:10:22.699Z,2.20
2019-06-07T12:12:47.751Z,3.00
2019-06-07T12:15:15.329Z,5.00
2019-06-07T12:17:43.274Z,6.00
2019-06-07T12:20:15.286Z,5.00
2019-06-07T12:22:42.964Z,4.20
2019-06-07T12:25:19.711Z,4.00
2019-06-07T12:27:47.572Z,4.00
2019-06-07T12:30:26.028Z,4.00
2019-06-07T12:32:48.269Z,3.00
2019-06-07T12:35:15.950Z,4.20
2019-06-07T12:37:45.179Z,4.00
2019-06-07T12:40:25.510Z,4.80
2019-06-07T12:42:42.063Z,3.00
2019-06-07T12:45:10.176Z,3.00
2019-06-07T12:47:37.796Z,3.00
2019-06-07T12:50:06.588Z,2.80
2019-06-07T12:52:34.556Z,3.00
2019-06-07T12:55:03.241Z,3.00
2019-06-07T12:57:34.517Z,3.20
2019-06-07T13:00:02.949Z,3.00
2019-06-07T13:02:30.529Z,3.80
2019-06-07T13:04:58.031Z,4.20
2019-06-07T13:07:25.880Z,1.80
2019-06-07T13:09:53.494Z,3.60
2019-06-07T13:12:28.227Z,4.00
2019-06-07T13:15:02.182Z,2.80
2019-06-07T13:17:32.868Z,3.00
2019-06-07T13:20:00.390Z,3.00
2019-06-07T13:22:32.876Z,2.00
2019-06-07T13:25:00.091Z,2.00
2019-06-07T13:27:32.792Z,4.00
2019-06-07T13:29:58.573Z,2.80
2019-06-07T13:32:45.198Z,2.20
2019-06-07T13:35:05.693Z,3.00
2019-06-07T13:37:35.161Z,3.80
2019-06-07T13:40:02.693Z,3.00
2019-06-07T13:42:34.904Z,2.60
2019-06-07T13:44:59.885Z,2.00
2019-06-07T13:47:27.649Z,1.60
2019-06-07T13:49:55.566Z,2.00
2019-06-07T13:52:27.380Z,1.80
2019-06-07T13:55:01.192Z,4.00
2019-06-07T13:57:26.319Z,2.00
2019-06-07T13:59:58.245Z,1.00
2019-06-07T14:02:29.850Z,2.00
2019-06-07T14:05:05.801Z,2.00
2019-06-07T14:07:33.880Z,2.00
2019-06-07T14:10:01.502Z,3.00
2019-06-07T14:12:29.655Z,3.00
2019-06-07T14:14:59.823Z,1.40
2019-06-07T14:17:28.312Z,2.00
2019-06-07T14:19:56.586Z,2.60
2019-06-07T14:22:26.925Z,2.00
2019-06-07T14:24:54.515Z,1.60
2019-06-07T14:27:23.325Z,1.20
2019-06-07T14:29:52.976Z,1.00
2019-06-07T14:32:22.497Z,1.40
2019-06-07T14:34:51.843Z,2.20
2019-06-07T14:37:22.893Z,2.00
2019-06-07T14:39:50.395Z,2.60
2019-06-07T14:42:18.033Z,2.00
2019-06-07T14:44:46.023Z,3.00
2019-06-07T14:47:13.645Z,3.60
2019-06-07T14:49:41.256Z,2.20
2019-06-07T14:52:09.138Z,2.60
2019-06-07T14:54:39.281Z,2.00
2019-06-07T14:57:06.831Z,3.20
2019-06-07T14:59:38.698Z,3.80
2019-06-07T15:02:08.754Z,2.60
2019-06-07T15:04:36.351Z,3.20
2019-06-07T15:07:04.347Z,3.80
2019-06-07T15:09:33.018Z,2.80
2019-06-07T15:12:00.684Z,4.00
2019-06-07T15:14:29.342Z,2.00
2019-06-07T15:16:59.087Z,2.00
2019-06-07T15:19:26.801Z,2.60
2019-06-07T15:21:57.484Z,4.40
2019-06-07T15:24:25.064Z,3.00
2019-06-07T15:26:52.595Z,2.00
2019-06-07T15:29:24.755Z,4.40
2019-06-07T15:31:52.371Z,3.00
2019-06-07T15:34:22.741Z,4.00
2019-06-07T15:36:50.836Z,4.20
2019-06-07T15:39:18.528Z,2.00
2019-06-07T15:41:47.305Z,2.00
2019-06-07T15:44:15.255Z,2.00
2019-06-07T15:46:45.108Z,3.20
2019-06-07T15:49:12.647Z,3.00
2019-06-07T15:51:42.345Z,2.80
2019-06-07T15:54:10.272Z,2.00
2019-06-07T15:56:41.877Z,3.40
2019-06-07T15:59:09.126Z,3.20
2019-06-07T16:01:41.876Z,3.00
2019-06-07T16:04:07.988Z,3.00
2019-06-07T16:06:40.585Z,3.00
2019-06-07T16:09:11.575Z,2.00
2019-06-07T16:11:43.239Z,2.40
2019-06-07T16:14:10.774Z,2.40
2019-06-07T16:16:38.999Z,4.20
2019-06-07T16:19:12.339Z,3.80
2019-06-07T16:21:39.756Z,3.00
2019-06-07T16:24:07.542Z,5.00
2019-06-07T16:26:40.222Z,3.40
2019-06-07T16:29:04.317Z,5.20
2019-06-07T16:31:32.283Z,3.00
2019-06-07T16:34:05.041Z,3.80
2019-06-07T16:36:40.253Z,3.00
2019-06-07T16:39:08.452Z,3.00
2019-06-07T16:41:42.853Z,3.00
2019-06-07T16:44:13.698Z,3.80
2019-06-07T16:46:42.772Z,2.40
2019-06-07T16:49:12.452Z,3.40
2019-06-07T16:51:43.262Z,5.20
2019-06-07T16:54:11.199Z,5.00
2019-06-07T16:56:44.969Z,7.60
2019-06-07T16:59:08.306Z,5.40
2019-06-07T17:01:37.002Z,5.00
2019-06-07T17:04:07.838Z,7.00
2019-06-07T17:06:35.771Z,4.00
2019-06-07T17:09:03.318Z,4.60
2019-06-07T17:11:31.246Z,8.00
2019-06-07T17:14:01.574Z,6.60
2019-06-07T17:16:29.079Z,5.40
2019-06-07T17:18:57.064Z,6.80
2019-06-07T17:21:24.761Z,11.80
2019-06-07T17:23:52.361Z,4.00
2019-06-07T17:26:31.568Z,0.00
2019-06-07T17:29:00.261Z,3.00
2019-06-07T17:31:28.242Z,1.80
2019-06-07T17:33:58.676Z,1.00
2019-06-07T17:36:26.238Z,1.00
2019-06-07T17:38:56.096Z,1.40
2019-06-07T17:41:25.214Z,1.00
2019-06-07T17:44:00.040Z,1.00
2019-06-07T17:46:28.043Z,1.80
2019-06-07T17:48:55.550Z,0.00
2019-06-07T17:51:26.397Z,0.00
2019-06-07T17:53:56.348Z,0.00
2019-06-07T17:56:25.078Z,0.00
2019-06-07T17:58:53.040Z,0.00
2019-06-07T18:01:20.684Z,0.80
2019-06-07T18:03:49.369Z,1.00
2019-06-07T18:06:17.485Z,0.00
2019-06-07T18:08:45.509Z,0.00
2019-06-07T18:11:13.106Z,0.00
2019-06-07T18:13:42.207Z,0.20
2019-06-07T18:16:10.164Z,0.00
2019-06-07T18:18:39.799Z,0.00
2019-06-07T18:21:09.803Z,0.00
2019-06-07T18:23:37.373Z,0.00
2019-06-07T18:26:10.221Z,1.00
2019-06-07T18:28:41.895Z,0.00
2019-06-07T18:31:10.523Z,0.00
2019-06-07T18:33:40.320Z,0.00
2019-06-07T18:36:09.712Z,0.00
2019-06-07T18:38:39.198Z,0.00
2019-06-07T18:41:09.168Z,0.00
2019-06-07T18:43:37.183Z,0.00
2019-06-07T18:46:06.470Z,0.00
2019-06-07T18:48:37.148Z,0.00
2019-06-07T18:51:05.201Z,0.00
2019-06-07T18:53:36.824Z,0.00
2019-06-07T18:56:04.431Z,0.00
2019-06-07T18:58:40.857Z,0.00
2019-06-07T19:01:08.517Z,0.00
2019-06-07T19:03:37.141Z,0.00
2019-06-07T19:06:04.979Z,3.00
2019-06-07T19:08:32.537Z,0.00
2019-06-07T19:11:07.322Z,0.00
2019-06-07T19:13:35.235Z,0.00
2019-06-07T19:16:04.474Z,0.00
2019-06-07T19:18:34.712Z,0.00
2019-06-07T19:21:02.620Z,0.00
2019-06-07T19:23:32.751Z,0.00
2019-06-07T19:26:01.695Z,0.00
2019-06-07T19:28:29.968Z,0.00
2019-06-07T19:31:02.618Z,0.00
2019-06-07T19:33:32.547Z,0.00
2019-06-07T19:36:01.582Z,0.00
2019-06-07T19:38:29.393Z,0.00
2019-06-07T19:40:57.982Z,0.00
2019-06-07T19:43:30.294Z,0.00
2019-06-07T19:45:58.253Z,0.00
2019-06-07T19:48:27.926Z,0.00
2019-06-07T19:50:56.873Z,0.20
2019-06-07T19:53:27.522Z,0.00
2019-06-07T19:55:59.180Z,0.00
2019-06-07T19:58:28.020Z,0.00
2019-06-07T20:00:57.840Z,0.00
2019-06-07T20:03:28.236Z,0.00
2019-06-07T20:05:56.056Z,0.00
2019-06-07T20:08:23.955Z,0.00
2019-06-07T20:10:51.853Z,0.00
2019-06-07T20:13:21.210Z,0.00
2019-06-07T20:15:51.629Z,0.00
2019-06-07T20:18:21.234Z,0.80
2019-06-07T20:20:48.692Z,0.00
2019-06-07T20:23:19.716Z,0.60
2019-06-07T20:25:47.256Z,0.00
2019-06-07T20:28:15.092Z,0.00
2019-06-07T20:30:46.858Z,0.00
2019-06-07T20:33:16.125Z,0.00
2019-06-07T20:35:44.042Z,0.80
2019-06-07T20:38:11.608Z,0.00
2019-06-07T20:40:42.611Z,0.00
2019-06-07T20:43:10.613Z,0.00
2019-06-07T20:45:43.763Z,0.00
2019-06-07T20:48:11.325Z,0.00
2019-06-07T20:50:39.227Z,0.00
2019-06-07T20:53:09.267Z,0.00
2019-06-07T20:55:39.473Z,0.00
2019-06-07T20:58:07.432Z,0.00
2019-06-07T21:00:35.249Z,0.00
2019-06-07T21:03:07.412Z,0.00
2019-06-07T21:05:36.246Z,0.00
2019-06-07T21:08:04.791Z,0.00
2019-06-07T21:10:33.089Z,0.00
2019-06-07T21:13:03.855Z,0.00
2019-06-07T21:15:30.690Z,0.00
2019-06-07T21:17:58.363Z,0.60
2019-06-07T21:20:27.739Z,0.00
2019-06-07T21:22:55.720Z,0.00
2019-06-07T21:25:23.285Z,0.00
2019-06-07T21:27:52.692Z,0.00
2019-06-07T21:30:20.202Z,0.00
2019-06-07T21:32:48.128Z,0.00
2019-06-07T21:35:15.652Z,0.60
2019-06-07T21:37:43.386Z,0.00
2019-06-07T21:40:12.233Z,0.00
2019-06-07T21:42:40.206Z,0.00
2019-06-07T21:45:08.303Z,0.00
2019-06-07T21:47:37.119Z,0.00
2019-06-07T21:50:06.936Z,0.00
2019-06-07T21:52:34.889Z,0.00
2019-06-07T21:55:02.903Z,0.00
2019-06-07T21:57:33.126Z,0.00
2019-06-07T22:00:00.671Z,0.00
2019-06-07T22:02:37.759Z,0.00
2019-06-07T22:05:05.665Z,0.00
2019-06-07T22:07:33.394Z,0.00
2019-06-07T22:10:01.366Z,0.00
2019-06-07T22:12:29.030Z,0.00
2019-06-07T22:14:57.009Z,0.00
2019-06-07T22:17:25.075Z,0.00
2019-06-07T22:19:52.617Z,0.00
2019-06-07T22:22:20.381Z,0.00
2019-06-07T22:24:48.047Z,0.00
2019-06-07T22:27:21.092Z,0.00
2019-06-07T22:29:50.601Z,0.80
2019-06-07T22:32:21.376Z,0.00
2019-06-07T22:34:51.802Z,0.00
2019-06-07T22:37:23.631Z,0.00
2019-06-07T22:39:51.019Z,0.00
2019-06-07T22:42:21.339Z,0.00
2019-06-07T22:44:51.144Z,0.00
2019-06-07T22:47:18.703Z,0.00
2019-06-07T22:49:48.622Z,0.00
2019-06-07T22:52:20.345Z,0.00
2019-06-07T22:54:49.788Z,0.00
2019-06-07T22:57:22.011Z,0.00
2019-06-07T22:59:50.047Z,0.00
2019-06-07T23:02:18.829Z,0.00
2019-06-07T23:04:46.786Z,0.00
2019-06-07T23:07:14.949Z,0.00
2019-06-07T23:09:42.918Z,0.00
2019-06-07T23:12:11.095Z,0.00
2019-06-07T23:14:38.899Z,0.00
2019-06-07T23:17:09.468Z,0.00
2019-06-07T23:19:37.662Z,0.20
2019-06-07T23:22:05.125Z,0.00
2019-06-07T23:24:35.246Z,0.00
2019-06-07T23:27:03.523Z,0.20
2019-06-07T23:29:34.154Z,0.00
2019-06-07T23:32:02.214Z,0.00
2019-06-07T23:34:38.636Z,0.00
2019-06-07T23:37:06.346Z,0.00
2019-06-07T23:39:35.953Z,0.00
2019-06-07T23:42:03.457Z,0.00
2019-06-07T23:44:31.610Z,1.80
2019-06-07T23:47:10.723Z,0.00
2019-06-07T23:49:28.500Z,0.00
2019-06-07T23:51:56.220Z,0.40
2019-06-07T23:54:25.900Z,0.00
2019-06-07T23:56:57.835Z,0.00
2019-06-07T23:59:25.566Z,0.40
